createdAt,value
2022-11-12T00:02:03.575Z,6.65
2022-11-12T00:07:05.073Z,7.85
2022-11-12T00:12:06.562Z,8.48
2022-11-12T00:17:07.893Z,8.38
2022-11-12T00:22:09.335Z,8.73
2022-11-12T00:27:12.012Z,9.10
2022-11-12T00:32:13.594Z,9.45
2022-11-12T00:37:15.093Z,10.07
2022-11-12T00:42:16.480Z,9.52
2022-11-12T00:47:17.895Z,10.45
2022-11-12T00:52:19.331Z,8.20
2022-11-12T00:57:20.825Z,7.70
2022-11-12T01:02:22.279Z,7.38
2022-11-12T01:07:23.763Z,7.75
2022-11-12T01:12:25.203Z,7.97
2022-11-12T01:17:26.778Z,7.57
2022-11-12T01:22:28.211Z,9.02
2022-11-12T01:27:29.567Z,8.80
2022-11-12T01:32:35.168Z,8.52
2022-11-12T01:37:36.595Z,7.35
2022-11-12T01:42:39.116Z,8.02
2022-11-12T01:47:40.873Z,8.18
2022-11-12T01:52:50.481Z,9.27
2022-11-12T01:58:00.156Z,8.70
2022-11-12T02:03:04.911Z,9.18
2022-11-12T02:08:07.439Z,8.90
2022-11-12T02:13:27.951Z,8.60
2022-11-12T02:18:29.544Z,8.65
2022-11-12T02:23:32.330Z,9.07
2022-11-12T02:28:33.789Z,10.10
2022-11-12T02:33:35.341Z,9.63
2022-11-12T02:38:36.760Z,9.23
2022-11-12T02:43:38.754Z,8.57
2022-11-12T02:48:40.304Z,9.43
2022-11-12T02:53:41.716Z,9.40
2022-11-12T02:58:43.218Z,8.63
2022-11-12T03:03:44.674Z,10.13
2022-11-12T03:08:46.231Z,9.55
2022-11-12T03:13:47.668Z,10.60
2022-11-12T03:18:49.066Z,11.02
2022-11-12T03:23:50.452Z,10.23
2022-11-12T03:28:51.967Z,10.10
2022-11-12T03:33:53.331Z,9.70
2022-11-12T03:38:54.685Z,9.60
2022-11-12T03:43:56.064Z,10.05
2022-11-12T03:48:59.395Z,9.60
2022-11-12T03:54:00.789Z,10.02
2022-11-12T03:59:02.179Z,10.43
2022-11-12T04:04:03.663Z,10.57
2022-11-12T04:09:05.097Z,8.65
2022-11-12T04:14:06.763Z,10.75
2022-11-12T04:19:30.667Z,8.95
2022-11-12T04:24:55.614Z,9.35
2022-11-12T04:30:16.190Z,8.80
2022-11-12T04:35:19.113Z,9.57
2022-11-12T04:40:44.403Z,8.60
2022-11-12T04:45:48.741Z,9.73
2022-11-12T04:50:54.522Z,8.65
2022-11-12T04:55:58.484Z,8.20
2022-11-12T05:00:59.890Z,9.48
2022-11-12T05:06:29.288Z,9.82
2022-11-12T05:11:30.648Z,8.73
2022-11-12T05:16:32.134Z,8.75
2022-11-12T05:21:52.061Z,8.25
2022-11-12T05:26:54.374Z,9.00
2022-11-12T05:31:55.825Z,9.70
2022-11-12T05:36:57.308Z,9.15
2022-11-12T05:42:12.352Z,8.65
2022-11-12T05:47:14.633Z,8.52
2022-11-12T05:52:15.988Z,9.18
2022-11-12T05:57:17.393Z,9.10
2022-11-12T06:02:18.938Z,8.73
2022-11-12T06:07:20.571Z,8.02
2022-11-12T06:12:21.998Z,8.27
2022-11-12T06:17:23.605Z,9.02
2022-11-12T06:22:24.995Z,8.20
2022-11-12T06:27:26.492Z,7.22
2022-11-12T06:32:27.859Z,8.27
2022-11-12T06:37:29.268Z,7.70
2022-11-12T06:42:30.691Z,7.72
2022-11-12T06:47:32.107Z,7.75
2022-11-12T06:52:33.522Z,8.63
2022-11-12T06:57:35.254Z,8.15
2022-11-12T07:02:37.195Z,8.18
2022-11-12T07:07:38.543Z,8.20
2022-11-12T07:12:39.904Z,8.13
2022-11-12T07:17:45.230Z,8.23
2022-11-12T07:22:46.670Z,8.60
2022-11-12T07:27:49.946Z,7.55
2022-11-12T07:32:52.215Z,8.13
2022-11-12T07:37:59.405Z,8.90
2022-11-12T07:43:01.068Z,7.85
2022-11-12T07:48:02.483Z,8.95
2022-11-12T07:53:03.871Z,9.55
2022-11-12T07:58:05.268Z,9.82
2022-11-12T08:03:06.639Z,8.77
2022-11-12T08:08:08.256Z,8.73
2022-11-12T08:13:09.711Z,9.07
2022-11-12T08:18:11.240Z,10.18
2022-11-12T08:23:12.672Z,10.77
2022-11-12T08:28:14.022Z,12.25
2022-11-12T08:33:15.368Z,12.68
2022-11-12T08:38:17.838Z,14.40
2022-11-12T08:43:19.268Z,17.48
2022-11-12T08:48:21.057Z,18.38
2022-11-12T08:53:24.684Z,21.27
2022-11-12T08:58:27.047Z,23.25
2022-11-12T09:03:28.725Z,20.83
2022-11-12T09:08:30.506Z,19.13
2022-11-12T09:13:32.558Z,21.85
2022-11-12T09:18:34.404Z,22.52
2022-11-12T09:23:36.230Z,21.05
2022-11-12T09:28:37.590Z,26.00
2022-11-12T09:33:39.076Z,24.55
2022-11-12T09:38:40.480Z,25.95
2022-11-12T09:43:53.991Z,26.67
2022-11-12T09:49:23.177Z,45.15
2022-11-12T09:54:27.791Z,29.92
2022-11-12T09:59:32.097Z,29.50
2022-11-12T10:04:42.201Z,28.00
2022-11-12T10:10:05.686Z,30.63
2022-11-12T10:15:51.316Z,29.10
2022-11-12T10:21:01.726Z,23.92
2022-11-12T10:26:12.404Z,24.55
2022-11-12T10:31:20.063Z,24.05
2022-11-12T10:36:31.626Z,22.80
2022-11-12T10:41:34.068Z,23.73
2022-11-12T10:46:37.730Z,23.48
2022-11-12T10:51:39.172Z,21.13
2022-11-12T10:56:40.548Z,19.13
2022-11-12T11:01:46.142Z,16.58
2022-11-12T11:06:47.962Z,16.38
2022-11-12T11:11:55.704Z,17.65
2022-11-12T11:17:04.600Z,15.25
2022-11-12T11:22:31.871Z,15.98
2022-11-12T11:33:04.541Z,16.13
2022-11-12T11:38:24.541Z,15.55
2022-11-12T11:43:44.650Z,11.25
2022-11-12T11:49:04.769Z,9.52
2022-11-12T11:54:20.732Z,8.73
2022-11-12T11:59:44.190Z,9.30
2022-11-12T12:04:49.181Z,10.05
2022-11-12T12:10:12.713Z,10.20
2022-11-12T12:15:26.340Z,9.60
2022-11-12T12:20:55.635Z,9.07
2022-11-12T12:26:00.538Z,9.10
2022-11-12T12:31:09.844Z,7.72
2022-11-12T12:36:25.272Z,7.70
2022-11-12T12:41:42.874Z,6.78
2022-11-12T12:46:55.875Z,6.13
2022-11-12T12:51:59.873Z,7.20
2022-11-12T12:57:04.418Z,7.22
2022-11-12T13:02:20.819Z,7.65
2022-11-12T13:07:43.414Z,8.00
2022-11-12T13:13:04.678Z,7.60
2022-11-12T13:18:16.876Z,7.57
2022-11-12T13:24:07.796Z,8.73
2022-11-12T13:29:27.484Z,9.95
2022-11-12T13:34:33.460Z,8.93
2022-11-12T13:39:36.309Z,8.25
2022-11-12T13:44:37.921Z,14.52
2022-11-12T13:49:39.443Z,8.77
2022-11-12T13:54:40.972Z,10.85
2022-11-12T13:59:42.835Z,9.52
2022-11-12T14:04:44.570Z,7.72
2022-11-12T14:10:02.347Z,8.10
2022-11-12T14:15:16.720Z,9.00
2022-11-12T14:20:24.899Z,11.88
2022-11-12T14:25:28.401Z,7.85
2022-11-12T14:30:33.167Z,9.07
2022-11-12T14:35:38.916Z,7.25
2022-11-12T14:40:47.987Z,6.97
2022-11-12T14:45:51.215Z,10.02
2022-11-12T14:51:01.076Z,8.43
2022-11-12T14:56:06.398Z,10.15
2022-11-12T15:02:13.856Z,13.68
2022-11-12T15:06:53.767Z,8.38
2022-11-12T15:11:55.228Z,6.85
2022-11-12T15:16:56.806Z,8.75
2022-11-12T15:22:01.431Z,11.55
2022-11-12T15:27:37.674Z,7.65
2022-11-12T15:32:39.257Z,9.80
2022-11-12T15:37:42.999Z,9.85
2022-11-12T15:42:44.974Z,7.68
2022-11-12T15:47:46.850Z,6.50
2022-11-12T15:52:48.976Z,6.72
2022-11-12T15:57:52.991Z,6.93
2022-11-12T16:03:00.092Z,6.82
2022-11-12T16:08:01.488Z,6.50
2022-11-12T16:13:04.398Z,7.95
2022-11-12T16:18:05.916Z,8.70
2022-11-12T16:23:07.366Z,8.13
2022-11-12T16:28:14.560Z,7.70
2022-11-12T16:33:17.069Z,8.43
2022-11-12T16:38:25.539Z,7.57
2022-11-12T16:43:27.267Z,6.13
2022-11-12T16:48:29.540Z,7.72
2022-11-12T16:53:31.242Z,6.93
2022-11-12T16:58:35.057Z,12.73
2022-11-12T17:03:41.277Z,16.48
2022-11-12T17:08:45.376Z,12.40
2022-11-12T17:13:46.772Z,12.00
2022-11-12T17:18:54.235Z,13.23
2022-11-12T17:23:57.902Z,13.10
2022-11-12T17:29:04.906Z,13.38
2022-11-12T17:34:11.487Z,12.88
2022-11-12T17:39:16.118Z,12.20
2022-11-12T17:44:19.129Z,6.75
2022-11-12T17:49:23.368Z,6.28
2022-11-12T17:54:24.931Z,7.85
2022-11-12T17:59:26.348Z,7.93
2022-11-12T18:04:31.015Z,9.23
2022-11-12T18:09:32.670Z,11.27
2022-11-12T18:14:34.537Z,8.52
2022-11-12T18:19:36.182Z,11.82
2022-11-12T18:24:37.801Z,13.13
2022-11-12T18:29:41.484Z,6.00
2022-11-12T18:34:45.159Z,5.97
2022-11-12T18:39:46.701Z,6.03
2022-11-12T18:44:48.074Z,6.57
2022-11-12T18:49:49.711Z,5.85
2022-11-12T18:54:51.230Z,5.35
2022-11-12T18:59:54.960Z,6.07
2022-11-12T19:04:59.253Z,6.20
2022-11-12T19:10:01.391Z,5.50
2022-11-12T19:15:03.154Z,32.10
2022-11-12T19:20:05.414Z,6.30
2022-11-12T19:25:10.630Z,5.78
2022-11-12T19:30:12.557Z,6.45
2022-11-12T19:35:13.988Z,5.78
2022-11-12T19:40:15.504Z,5.45
2022-11-12T19:45:17.852Z,6.47
2022-11-12T19:50:24.386Z,7.40
2022-11-12T19:55:28.489Z,35.08
2022-11-12T20:00:31.085Z,9.52
2022-11-12T20:05:34.982Z,12.68
2022-11-12T20:10:37.650Z,14.05
2022-11-12T20:15:39.189Z,6.45
2022-11-12T20:20:40.609Z,5.40
2022-11-12T20:25:42.803Z,6.25
2022-11-12T20:30:45.259Z,7.10
2022-11-12T20:35:46.684Z,7.45
2022-11-12T20:40:48.263Z,9.32
2022-11-12T20:45:52.617Z,12.13
2022-11-12T20:51:25.093Z,10.57
2022-11-12T20:56:28.998Z,6.75
2022-11-12T21:01:30.862Z,7.65
2022-11-12T21:06:33.248Z,7.70
2022-11-12T21:11:35.046Z,6.80
2022-11-12T21:16:36.678Z,6.15
2022-11-12T21:21:38.339Z,7.13
2022-11-12T21:26:41.079Z,6.68
2022-11-12T21:31:42.508Z,6.13
2022-11-12T21:36:44.165Z,7.35
2022-11-12T21:41:45.616Z,7.53
2022-11-12T21:46:47.058Z,6.90
2022-11-12T21:51:48.500Z,7.22
2022-11-12T21:56:49.964Z,6.55
2022-11-12T22:01:51.370Z,6.55
2022-11-12T22:06:52.845Z,6.72
2022-11-12T22:11:54.381Z,6.57
2022-11-12T22:16:55.911Z,8.27
2022-11-12T22:21:57.287Z,8.88
2022-11-12T22:27:02.659Z,8.23
2022-11-12T22:32:06.804Z,7.75
2022-11-12T22:37:08.306Z,6.93
2022-11-12T22:42:09.797Z,8.00
2022-11-12T22:47:11.277Z,7.10
2022-11-12T22:52:12.947Z,7.88
2022-11-12T22:57:14.375Z,8.57
2022-11-12T23:02:15.809Z,9.48
2022-11-12T23:07:17.394Z,7.10
2022-11-12T23:12:21.275Z,5.30
2022-11-12T23:17:22.674Z,6.53
2022-11-12T23:22:24.081Z,6.68
2022-11-12T23:27:25.667Z,6.72
2022-11-12T23:32:27.298Z,5.80
2022-11-12T23:37:28.686Z,8.10
2022-11-12T23:42:30.284Z,7.47
2022-11-12T23:47:31.944Z,7.28
2022-11-12T23:52:33.446Z,7.43
2022-11-12T23:57:34.865Z,7.13
